Time;durP1;ratioP1;P1;durP2;ratioP2;P2;SDS_P1;SDS_P2;PMS_P1;PMS_P2;Temp;Humidity;BMP_temperature;BMP_pressure;BME280_temperature;BME280_humidity;BME280_pressure;Samples;Min_cycle;Max_cycle;Signal;HPM_P1;HPM_P2
2022/05/22 00:00:08;;;;;;;3.58;2.13;;;12.60;99.90;;;;;;5075900;28;20084;-70
2022/05/22 00:02:34;;;;;;;7.28;1.90;;;12.60;99.90;;;;;;5075492;28;20041;-70
2022/05/22 00:05:00;;;;;;;4.20;1.70;;;12.50;99.90;;;;;;5075515;28;20123;-70
2022/05/22 00:07:26;;;;;;;3.25;1.77;;;12.40;99.90;;;;;;5057682;28;20143;-70
2022/05/22 00:09:52;;;;;;;3.38;2.28;;;12.40;99.90;;;;;;5075794;28;20537;-70
2022/05/22 00:12:17;;;;;;;3.53;1.80;;;12.50;99.90;;;;;;5075817;28;20470;-70
2022/05/22 00:14:43;;;;;;;4.13;1.70;;;12.40;99.90;;;;;;5058027;28;20406;-70
2022/05/22 00:17:09;;;;;;;5.22;1.90;;;12.50;99.90;;;;;;5057666;28;20056;-70
2022/05/22 00:19:36;;;;;;;4.80;2.08;;;12.50;99.90;;;;;;5075388;28;20045;-70
2022/05/22 00:22:03;;;;;;;4.25;2.08;;;12.50;99.90;;;;;;5074673;28;20079;-70
2022/05/22 00:24:30;;;;;;;6.38;2.72;;;12.50;99.90;;;;;;5075380;28;20052;-70
2022/05/22 00:26:57;;;;;;;3.70;2.38;;;12.40;99.90;;;;;;5057245;28;20048;-70
2022/05/22 00:29:23;;;;;;;5.50;2.63;;;12.40;99.90;;;;;;5057057;28;20064;-70
2022/05/22 00:31:49;;;;;;;7.75;2.90;;;12.40;99.90;;;;;;5057365;28;20106;-70
2022/05/22 00:34:15;;;;;;;8.80;2.80;;;12.30;99.90;;;;;;5075127;28;20044;-70
2022/05/22 00:36:41;;;;;;;9.90;2.92;;;12.30;99.90;;;;;;5075049;28;20045;-70
2022/05/22 00:39:07;;;;;;;4.88;2.80;;;12.30;99.90;;;;;;5074924;28;20041;-70
2022/05/22 00:41:34;;;;;;;8.98;2.92;;;12.20;99.90;;;;;;5075108;28;20400;-70
2022/05/22 00:44:00;;;;;;;7.88;2.80;;;12.20;99.90;;;;;;5074826;28;20075;-70
2022/05/22 00:46:27;;;;;;;8.07;2.90;;;12.20;99.90;;;;;;5040420;28;20106;-70
2022/05/22 00:49:29;;;;;;;7.30;3.25;;;12.20;99.90;;;;;;5074677;28;20131;-70
2022/05/22 00:52:09;;;;;;;6.43;3.33;;;12.20;99.90;;;;;;5074421;28;20051;-70
2022/05/22 00:55:01;;;;;;;8.30;3.42;;;12.20;99.90;;;;;;5074895;28;20499;-70
2022/05/22 00:57:31;;;;;;;6.55;3.17;;;12.20;99.90;;;;;;5074206;28;20052;-70
2022/05/22 01:00:04;;;;;;;13.80;4.32;;;12.20;99.90;;;;;;5056746;28;20055;-70
2022/05/22 01:03:26;;;;;;;11.95;3.80;;;12.20;99.90;;;;;;5075053;28;20048;-70
2022/05/22 01:05:19;;;;;;;7.88;3.67;;;12.20;99.90;;;;;;5074070;28;20044;-70
2022/05/22 01:07:45;;;;;;;6.80;3.80;;;12.20;99.90;;;;;;5074330;28;20501;-70
2022/05/22 01:10:12;;;;;;;9.40;3.80;;;12.20;99.90;;;;;;5056615;28;20084;-70
2022/05/22 01:12:41;;;;;;;10.68;4.47;;;12.20;99.90;;;;;;5074268;28;20048;-70
2022/05/22 01:15:07;;;;;;;9.65;4.32;;;12.10;99.90;;;;;;5074289;28;20044;-70
2022/05/22 01:17:47;;;;;;;8.57;4.57;;;12.10;99.90;;;;;;5074105;28;20048;-70
2022/05/22 01:20:14;;;;;;;8.35;4.63;;;12.00;99.90;;;;;;5074038;28;20127;-70
2022/05/22 01:22:41;;;;;;;13.70;5.07;;;12.00;99.90;;;;;;5073598;28;20050;-70
2022/05/22 01:25:08;;;;;;;12.15;5.10;;;11.90;99.90;;;;;;5056474;28;20049;-70
2022/05/22 01:27:34;;;;;;;11.25;4.78;;;12.00;99.90;;;;;;5056193;28;20491;-70
2022/05/22 01:30:23;;;;;;;9.73;4.18;;;11.90;99.90;;;;;;5055818;28;20139;-70
2022/05/22 01:32:49;;;;;;;9.65;4.13;;;12.00;99.90;;;;;;5073994;28;20071;-70
2022/05/22 01:35:19;;;;;;;9.90;4.82;;;11.90;99.90;;;;;;5073632;28;20045;-70
2022/05/22 01:37:46;;;;;;;11.35;4.22;;;11.90;99.90;;;;;;5073775;28;20477;-70
2022/05/22 01:40:12;;;;;;;10.00;4.50;;;11.90;99.90;;;;;;5055856;28;20048;-70
2022/05/22 01:42:39;;;;;;;8.38;4.82;;;11.90;99.90;;;;;;5056041;28;20095;-70
2022/05/22 01:45:06;;;;;;;9.05;3.75;;;11.90;99.90;;;;;;5055835;28;20083;-70
2022/05/22 01:47:34;;;;;;;11.55;4.90;;;11.90;99.90;;;;;;5073439;28;20045;-70
2022/05/22 01:50:00;;;;;;;13.30;5.43;;;11.90;99.90;;;;;;5056030;28;20110;-70
2022/05/22 01:52:25;;;;;;;13.07;5.47;;;11.90;99.90;;;;;;5073493;28;20056;-70
2022/05/22 01:54:51;;;;;;;6.20;3.90;;;11.80;99.90;;;;;;5056096;28;20049;-70
2022/05/22 01:57:17;;;;;;;9.73;4.35;;;11.80;99.90;;;;;;5073368;28;20052;-70
2022/05/22 01:59:42;;;;;;;7.10;4.32;;;11.80;99.90;;;;;;5073672;28;20044;-70
2022/05/22 02:02:08;;;;;;;7.63;4.57;;;11.70;99.90;;;;;;5073275;28;20051;-70
2022/05/22 02:04:34;;;;;;;7.97;3.58;;;11.70;99.90;;;;;;5073536;28;20105;-70
2022/05/22 02:09:44;;;;;;;8.82;3.90;;;11.70;99.90;;;;;;5072952;28;20082;-70
2022/05/22 02:12:09;;;;;;;7.97;3.70;;;11.70;99.90;;;;;;5055477;28;20058;-70
2022/05/22 02:14:35;;;;;;;11.70;4.53;;;11.70;99.90;;;;;;5073084;28;20055;-70
2022/05/22 02:17:01;;;;;;;8.15;4.30;;;11.80;99.90;;;;;;5055825;28;20127;-70
2022/05/22 02:19:27;;;;;;;11.05;4.88;;;11.70;99.90;;;;;;5073205;28;20508;-70
2022/05/22 02:21:53;;;;;;;9.38;4.53;;;11.70;99.90;;;;;;5073012;28;20382;-70
2022/05/22 02:24:19;;;;;;;10.90;4.82;;;11.80;99.90;;;;;;5055402;28;20520;-70
2022/05/22 02:26:44;;;;;;;11.43;5.03;;;11.70;99.90;;;;;;5073316;28;20044;-70
2022/05/22 02:29:10;;;;;;;13.82;5.28;;;11.70;99.90;;;;;;5055474;28;20512;-70
2022/05/22 02:31:36;;;;;;;12.38;4.68;;;11.70;99.90;;;;;;5073290;28;20444;-70
2022/05/22 02:34:02;;;;;;;8.73;5.05;;;11.70;99.90;;;;;;5055892;28;20068;-70
2022/05/22 02:36:27;;;;;;;9.23;4.95;;;11.70;99.90;;;;;;5073336;28;20127;-70
2022/05/22 02:38:53;;;;;;;8.27;4.13;;;11.60;99.90;;;;;;5073467;28;20146;-70
2022/05/22 02:41:20;;;;;;;6.35;4.38;;;11.60;99.90;;;;;;5073119;28;20048;-70
2022/05/22 02:43:47;;;;;;;8.93;4.57;;;11.60;99.90;;;;;;5055183;28;20127;-70
2022/05/22 02:46:15;;;;;;;8.20;4.70;;;11.60;99.90;;;;;;5073025;28;20041;-70
2022/05/22 02:48:42;;;;;;;8.20;4.97;;;11.60;99.90;;;;;;5073281;28;20048;-70
2022/05/22 02:51:16;;;;;;;10.77;5.05;;;11.60;99.90;;;;;;5072773;28;20109;-70
2022/05/22 02:53:42;;;;;;;11.25;5.03;;;11.60;99.90;;;;;;5055418;28;20063;-69
2022/05/22 02:56:12;;;;;;;9.88;4.85;;;11.60;99.90;;;;;;5072861;28;20119;-70
2022/05/22 02:58:38;;;;;;;11.18;4.40;;;11.60;99.90;;;;;;5072791;28;20472;-70
2022/05/22 03:01:04;;;;;;;10.07;4.38;;;11.60;99.90;;;;;;5073110;28;20076;-70
2022/05/22 03:03:30;;;;;;;10.02;4.63;;;11.50;99.90;;;;;;5072871;28;20052;-70
2022/05/22 03:08:40;;;;;;;7.18;4.85;;;11.50;99.90;;;;;;5073037;28;20135;-69
2022/05/22 03:11:06;;;;;;;8.18;4.70;;;11.40;99.90;;;;;;5072622;28;20087;-70
2022/05/22 03:13:33;;;;;;;9.65;5.18;;;11.40;99.90;;;;;;5072903;28;20435;-70
2022/05/22 03:15:59;;;;;;;11.13;4.60;;;11.40;99.90;;;;;;5072976;28;20052;-70
2022/05/22 03:18:25;;;;;;;8.38;4.30;;;11.40;99.90;;;;;;5072812;28;20045;-70
2022/05/22 03:20:50;;;;;;;10.63;4.78;;;11.50;99.90;;;;;;5055740;28;20055;-70
2022/05/22 03:23:16;;;;;;;8.77;4.40;;;11.50;99.90;;;;;;5076223;28;20055;-70
2022/05/22 03:25:44;;;;;;;7.13;4.03;;;11.40;99.90;;;;;;5075997;28;20150;-70
2022/05/22 03:28:09;;;;;;;6.18;3.78;;;11.40;99.90;;;;;;5058833;28;20044;-70
2022/05/22 03:30:35;;;;;;;8.32;3.95;;;11.40;99.90;;;;;;5076414;28;20048;-70
2022/05/22 03:33:01;;;;;;;7.57;4.32;;;11.40;99.90;;;;;;5058547;28;20374;-69
2022/05/22 03:35:26;;;;;;;6.95;3.42;;;11.30;99.90;;;;;;5058531;28;20070;-70
2022/05/22 03:37:52;;;;;;;5.55;3.13;;;11.30;99.90;;;;;;5076219;28;20148;-70
2022/05/22 03:40:18;;;;;;;4.15;2.65;;;11.40;99.90;;;;;;5058302;28;20036;-70
2022/05/22 03:42:43;;;;;;;3.45;2.30;;;11.40;99.90;;;;;;5076216;28;20044;-70
2022/05/22 03:45:10;;;;;;;4.38;2.75;;;11.40;99.90;;;;;;5076108;28;20049;-70
2022/05/22 03:47:36;;;;;;;4.00;2.40;;;11.30;99.90;;;;;;5075884;28;20059;-70
2022/05/22 03:50:04;;;;;;;6.90;2.92;;;11.40;99.90;;;;;;5075838;28;20402;-70
2022/05/22 03:52:39;;;;;;;4.32;2.55;;;11.40;99.90;;;;;;5075360;28;20128;-70
2022/05/22 03:55:08;;;;;;;3.90;2.80;;;11.40;99.90;;;;;;5075877;28;20071;-70
2022/05/22 03:57:34;;;;;;;6.22;2.88;;;11.50;99.90;;;;;;5076207;28;20049;-69
2022/05/22 04:00:05;;;;;;;7.25;3.20;;;11.50;99.90;;;;;;5075663;28;20094;-70
2022/05/22 04:02:33;;;;;;;4.63;3.25;;;11.50;99.90;;;;;;5058276;28;20513;-70
2022/05/22 04:04:59;;;;;;;4.45;2.80;;;11.60;99.90;;;;;;5041220;28;20107;-69
2022/05/22 04:07:25;;;;;;;6.70;3.65;;;11.60;99.90;;;;;;5075287;28;20093;-70
2022/05/22 04:09:50;;;;;;;6.15;3.63;;;11.60;99.90;;;;;;5057824;28;20055;-70
2022/05/22 04:12:16;;;;;;;5.28;3.45;;;11.60;99.90;;;;;;5057840;28;20131;-70
2022/05/22 04:14:42;;;;;;;5.40;3.20;;;11.60;99.90;;;;;;5075674;28;20045;-70
2022/05/22 04:17:08;;;;;;;4.10;2.92;;;11.70;99.90;;;;;;5075334;28;20037;-70
2022/05/22 04:19:34;;;;;;;5.72;2.72;;;11.80;99.90;;;;;;5075501;28;20059;-70
2022/05/22 04:22:00;;;;;;;4.63;2.88;;;11.80;99.90;;;;;;5056963;28;20052;-70
2022/05/22 04:27:10;;;;;;;4.50;3.20;;;11.90;99.90;;;;;;5075342;28;20587;-70
2022/05/22 04:29:36;;;;;;;4.53;2.95;;;11.90;99.90;;;;;;5040707;28;20049;-69
2022/05/22 04:32:03;;;;;;;6.10;3.72;;;11.90;99.90;;;;;;5074860;28;20147;-69
2022/05/22 04:34:29;;;;;;;7.07;3.83;;;12.00;99.90;;;;;;5075024;28;20052;-70
2022/05/22 04:36:55;;;;;;;7.10;3.63;;;12.10;99.90;;;;;;5075332;28;20040;-70
2022/05/22 04:39:21;;;;;;;7.43;4.25;;;12.20;99.90;;;;;;5057336;28;20079;-70
2022/05/22 04:41:46;;;;;;;5.95;4.30;;;12.30;99.90;;;;;;5075086;28;20049;-70
2022/05/22 04:44:12;;;;;;;7.28;3.80;;;12.30;99.90;;;;;;5057176;28;20102;-70
2022/05/22 04:46:38;;;;;;;10.55;4.13;;;12.40;99.90;;;;;;5056989;28;20130;-69
2022/05/22 04:49:03;;;;;;;7.45;4.50;;;12.50;99.90;;;;;;5074511;28;20131;-70
2022/05/22 04:51:29;;;;;;;9.50;4.70;;;12.60;99.90;;;;;;5074290;28;20048;-70
2022/05/22 04:53:54;;;;;;;11.10;4.75;;;12.70;99.90;;;;;;5074943;28;20053;-70
2022/05/22 04:56:20;;;;;;;5.43;3.80;;;12.80;99.90;;;;;;5074545;28;20080;-70
2022/05/22 04:58:47;;;;;;;6.88;4.72;;;12.90;99.90;;;;;;5074884;28;20109;-70
2022/05/22 05:01:14;;;;;;;8.93;4.40;;;12.90;99.90;;;;;;5056818;28;20048;-70
2022/05/22 05:03:40;;;;;;;7.68;4.80;;;13.00;99.90;;;;;;5074373;28;20047;-70
2022/05/22 05:06:06;;;;;;;17.40;6.20;;;13.10;99.90;;;;;;5074145;28;20048;-70
2022/05/22 05:08:32;;;;;;;11.55;5.03;;;13.30;99.90;;;;;;5074704;28;20052;-70
2022/05/22 05:11:00;;;;;;;12.10;5.00;;;13.40;99.90;;;;;;5074338;28;20052;-70
2022/05/22 05:13:27;;;;;;;14.20;5.35;;;13.50;99.90;;;;;;5056678;28;20056;-70
2022/05/22 05:16:04;;;;;;;13.65;6.20;;;13.50;99.90;;;;;;5074170;28;20048;-70
2022/05/22 05:18:31;;;;;;;11.25;4.90;;;13.70;99.90;;;;;;5074077;28;20496;-70
2022/05/22 05:21:02;;;;;;;12.30;6.20;;;13.80;99.90;;;;;;5073983;28;20393;-70
2022/05/22 05:23:28;;;;;;;15.85;6.00;;;13.90;99.90;;;;;;5074108;28;20055;-70
2022/05/22 05:25:54;;;;;;;14.40;6.10;;;13.90;99.90;;;;;;5074043;28;20400;-70
2022/05/22 05:28:20;;;;;;;13.95;6.55;;;14.10;99.90;;;;;;5073635;28;20040;-70
2022/05/22 05:30:45;;;;;;;13.63;5.72;;;14.20;99.90;;;;;;5056549;28;20052;-70
2022/05/22 05:33:11;;;;;;;15.30;5.90;;;14.40;99.90;;;;;;5073970;28;20076;-70
2022/05/22 05:35:37;;;;;;;13.63;6.22;;;14.50;99.90;;;;;;5073827;28;20047;-70
2022/05/22 05:38:03;;;;;;;16.65;6.43;;;14.60;99.90;;;;;;5073990;28;20072;-70
2022/05/22 05:40:29;;;;;;;13.43;6.22;;;14.80;99.90;;;;;;5073694;28;20548;-70
2022/05/22 05:42:55;;;;;;;18.02;6.85;;;14.70;99.90;;;;;;5055716;28;20128;-70
2022/05/22 05:45:21;;;;;;;19.17;7.60;;;14.80;99.90;;;;;;5073447;28;20072;-70
2022/05/22 05:47:48;;;;;;;18.30;6.63;;;14.80;99.90;;;;;;5073784;28;20051;-70
2022/05/22 05:50:16;;;;;;;13.65;6.97;;;14.90;99.90;;;;;;5073514;28;20048;-70
2022/05/22 05:52:42;;;;;;;18.23;6.63;;;15.10;99.90;;;;;;5055573;28;20413;-70
2022/05/22 05:55:08;;;;;;;16.35;7.13;;;15.30;99.90;;;;;;5073634;28;20127;-70
2022/05/22 05:57:34;;;;;;;18.55;7.55;;;15.30;99.90;;;;;;5073351;28;20378;-70
2022/05/22 06:00:00;;;;;;;23.35;7.65;;;15.50;99.90;;;;;;5073303;28;20101;-70
2022/05/22 06:02:26;;;;;;;20.80;7.63;;;15.60;99.90;;;;;;5073455;28;20460;-70
2022/05/22 06:04:52;;;;;;;18.88;7.93;;;15.70;99.90;;;;;;5073718;28;20091;-70
2022/05/22 06:07:18;;;;;;;21.63;8.27;;;15.60;99.90;;;;;;5055714;28;20401;-70
2022/05/22 06:09:43;;;;;;;17.60;7.75;;;15.70;99.90;;;;;;5073464;28;20066;-70
2022/05/22 06:12:09;;;;;;;15.82;7.28;;;15.70;99.90;;;;;;5055862;28;20049;-70
2022/05/22 06:14:35;;;;;;;18.13;7.25;;;15.90;99.90;;;;;;5055732;28;20493;-70
2022/05/22 06:17:01;;;;;;;18.05;7.47;;;15.90;99.90;;;;;;5055600;28;20041;-70
2022/05/22 06:22:15;;;;;;;17.83;7.18;;;16.10;99.90;;;;;;5073099;28;20443;-70
2022/05/22 06:24:41;;;;;;;24.73;8.38;;;16.10;99.90;;;;;;5073052;28;20473;-70
2022/05/22 06:27:06;;;;;;;19.33;7.63;;;16.20;99.90;;;;;;5072926;28;20052;-70
2022/05/22 06:29:32;;;;;;;21.27;7.00;;;16.20;99.90;;;;;;5055142;28;20454;-70
2022/05/22 06:31:57;;;;;;;24.83;7.28;;;16.10;99.90;;;;;;5055504;28;20055;-71
2022/05/22 06:34:24;;;;;;;18.85;6.38;;;16.30;99.90;;;;;;5073394;28;20045;-70
2022/05/22 06:36:50;;;;;;;18.17;6.97;;;16.40;99.90;;;;;;5073386;28;20041;-70
2022/05/22 06:42:00;;;;;;;26.60;7.43;;;16.50;99.90;;;;;;5055546;28;20149;-70
2022/05/22 06:44:26;;;;;;;19.33;6.90;;;16.10;99.90;;;;;;5055911;28;20106;-70
2022/05/22 06:46:51;;;;;;;21.98;6.93;;;16.20;99.90;;;;;;5072909;28;20071;-70
2022/05/22 06:49:17;;;;;;;21.13;6.45;;;16.30;99.90;;;;;;5055350;28;20446;-70
2022/05/22 06:51:42;;;;;;;16.90;6.85;;;16.40;99.90;;;;;;5072572;28;20631;-70
2022/05/22 06:54:08;;;;;;;19.48;7.15;;;16.60;99.90;;;;;;5055076;28;20045;-70
2022/05/22 06:56:34;;;;;;;21.60;6.90;;;16.70;99.90;;;;;;5076911;28;20123;-70
2022/05/22 06:59:00;;;;;;;20.25;6.75;;;16.70;99.90;;;;;;5077004;28;20131;-71
2022/05/22 07:01:26;;;;;;;18.73;6.72;;;16.80;99.90;;;;;;5076896;28;20094;-70
2022/05/22 07:03:52;;;;;;;25.13;6.82;;;16.80;99.90;;;;;;5076827;28;20122;-70
2022/05/22 07:06:18;;;;;;;23.95;7.40;;;16.90;99.90;;;;;;5058944;28;20091;-70
2022/05/22 07:08:44;;;;;;;14.07;5.65;;;17.00;99.90;;;;;;5076630;28;20080;-70
2022/05/22 07:13:54;;;;;;;15.25;4.88;;;17.00;99.90;;;;;;5076558;28;20059;-70
2022/05/22 07:16:20;;;;;;;16.63;4.60;;;16.90;99.90;;;;;;5059170;28;20134;-70
2022/05/22 07:18:45;;;;;;;13.40;5.97;;;17.00;99.90;;;;;;5076568;28;20101;-70
2022/05/22 07:21:11;;;;;;;15.02;5.40;;;16.80;99.90;;;;;;5076057;28;20050;-70
2022/05/22 07:23:37;;;;;;;19.23;5.18;;;16.80;99.90;;;;;;5066659;28;20092;-73
2022/05/22 07:26:05;;;;;;;14.52;4.70;;;17.00;99.90;;;;;;5067197;28;20047;-76
2022/05/22 07:28:31;;;;;;;18.20;5.68;;;17.10;99.90;;;;;;5058419;28;20061;-70
2022/05/22 07:30:57;;;;;;;14.98;4.93;;;17.10;99.90;;;;;;5057888;28;20114;-73
2022/05/22 07:33:23;;;;;;;14.23;5.05;;;17.30;99.90;;;;;;5064524;28;20552;-71
2022/05/22 07:35:57;;;;;;;15.60;5.32;;;17.30;99.90;;;;;;5061244;28;20132;-89
2022/05/22 07:38:23;;;;;;;14.38;5.30;;;17.30;99.90;;;;;;5060160;28;20090;-69
2022/05/22 07:40:49;;;;;;;10.60;4.38;;;17.20;99.90;;;;;;5054184;28;20044;-70
2022/05/22 07:43:16;;;;;;;15.63;4.13;;;17.20;99.90;;;;;;5054944;28;20041;-73
2022/05/22 07:45:42;;;;;;;12.32;3.88;;;17.10;99.90;;;;;;5055352;28;20489;-69
2022/05/22 07:48:08;;;;;;;14.55;3.35;;;17.30;99.90;;;;;;5054221;28;20405;-70
2022/05/22 07:50:34;;;;;;;15.00;3.00;;;17.40;99.90;;;;;;5056685;28;20051;-69
2022/05/22 07:53:01;;;;;;;16.58;3.53;;;17.40;99.90;;;;;;5055337;28;20406;-71
2022/05/22 07:55:26;;;;;;;13.95;2.92;;;17.50;99.90;;;;;;5052247;28;20393;-70
2022/05/22 07:57:52;;;;;;;8.77;2.60;;;17.40;99.90;;;;;;5063804;28;20049;-77
2022/05/22 08:00:20;;;;;;;11.07;3.03;;;17.60;99.90;;;;;;5036893;28;20068;-69
2022/05/22 08:02:47;;;;;;;14.02;3.08;;;17.70;99.90;;;;;;5055475;28;20049;-73
2022/05/22 08:05:19;;;;;;;13.40;2.50;;;17.70;99.90;;;;;;5075426;28;20087;-70
2022/05/22 08:07:45;;;;;;;16.45;2.97;;;18.00;99.90;;;;;;5075177;28;20048;-69
2022/05/22 08:10:15;;;;;;;10.65;2.10;;;18.10;99.90;;;;;;5075883;28;20051;-72
2022/05/22 08:12:44;;;;;;;9.15;2.53;;;17.60;99.90;;;;;;5075959;28;20052;-72
2022/05/22 08:15:12;;;;;;;11.80;2.30;;;17.50;99.90;;;;;;5057792;28;20056;-68
2022/05/22 08:17:38;;;;;;;12.02;2.97;;;17.50;99.90;;;;;;5075538;28;20041;-68
2022/05/22 08:20:07;;;;;;;13.05;2.55;;;17.50;99.90;;;;;;5075207;28;20044;-68
2022/05/22 08:22:33;;;;;;;9.93;2.22;;;18.00;99.90;;;;;;5075152;28;20045;-70
2022/05/22 08:25:01;;;;;;;15.90;2.55;;;18.40;99.90;;;;;;5075297;28;20048;-68
2022/05/22 08:27:27;;;;;;;7.82;1.80;;;18.30;99.90;;;;;;5075346;28;20044;-67
2022/05/22 08:29:54;;;;;;;10.02;1.60;;;18.30;99.90;;;;;;5061709;28;20057;-68
2022/05/22 08:32:19;;;;;;;9.50;2.00;;;18.40;99.90;;;;;;5041667;28;20398;-69
2022/05/22 08:34:45;;;;;;;8.05;1.80;;;18.30;99.90;;;;;;5061946;28;20064;-70
2022/05/22 08:37:11;;;;;;;6.68;1.63;;;18.50;99.90;;;;;;5019258;28;20051;-71
2022/05/22 08:39:36;;;;;;;13.02;2.55;;;18.50;99.90;;;;;;5053242;28;20053;-71
2022/05/22 08:42:11;;;;;;;7.07;1.42;;;18.10;99.90;;;;;;5054024;28;20044;-70
2022/05/22 08:44:38;;;;;;;9.35;1.92;;;18.10;99.90;;;;;;5054878;28;20084;-70
2022/05/22 08:47:28;;;;;;;9.93;1.95;;;18.40;99.90;;;;;;5054702;28;20385;-70
2022/05/22 08:50:10;;;;;;;8.93;1.95;;;18.60;99.90;;;;;;5037430;28;20131;-70
2022/05/22 08:52:44;;;;;;;10.05;1.52;;;18.20;99.90;;;;;;5054693;28;20053;-69
2022/05/22 08:55:16;;;;;;;6.72;1.25;;;18.20;99.90;;;;;;5054618;28;20095;-68
2022/05/22 09:00:51;;;;;;;10.88;1.90;;;18.30;99.90;;;;;;5054753;28;20056;-85
2022/05/22 09:03:32;;;;;;;8.68;1.70;;;18.40;99.90;;;;;;5020918;28;20049;-85
2022/05/22 09:06:04;;;;;;;8.88;1.50;;;18.40;99.90;;;;;;5020608;28;20441;-86
2022/05/22 09:08:38;;;;;;;8.48;1.30;;;18.10;99.90;;;;;;5020113;28;20490;-86
2022/05/22 09:11:13;;;;;;;6.00;1.15;;;18.20;99.90;;;;;;5020350;28;20051;-84
2022/05/22 09:13:42;;;;;;;5.63;1.33;;;18.20;99.90;;;;;;5036914;28;20133;-67
2022/05/22 09:16:27;;;;;;;5.93;1.38;;;18.40;99.90;;;;;;5057627;28;20044;-68
2022/05/22 09:18:55;;;;;;;7.63;1.40;;;18.70;99.90;;;;;;5067005;28;20056;-69
2022/05/22 09:21:43;;;;;;;5.82;1.40;;;18.90;99.90;;;;;;5058543;28;20040;-68
2022/05/22 09:24:35;;;;;;;9.88;1.75;;;19.10;99.90;;;;;;5059693;28;20047;-70
2022/05/22 09:27:08;;;;;;;11.60;1.52;;;19.50;99.90;;;;;;5058153;28;20473;-86
2022/05/22 09:29:53;;;;;;;6.85;1.20;;;19.40;99.90;;;;;;5019879;28;20064;-86
2022/05/22 09:32:38;;;;;;;10.07;1.50;;;18.70;99.90;;;;;;5020589;28;20486;-87
2022/05/22 09:35:25;;;;;;;8.88;1.60;;;18.70;99.90;;;;;;5036970;28;20053;-83
2022/05/22 09:37:54;;;;;;;7.70;1.75;;;18.60;99.90;;;;;;5020244;28;20055;-67
2022/05/22 09:40:41;;;;;;;9.95;1.52;;;18.70;99.90;;;;;;5048457;28;20098;-67
2022/05/22 09:43:27;;;;;;;10.77;1.63;;;19.00;99.90;;;;;;5054144;28;20055;-68
2022/05/22 09:46:22;;;;;;;;;;;19.60;99.90;;;;;;5054077;28;20578;-79
2022/05/22 09:49:10;;;;;;;12.63;1.95;;;19.90;99.90;;;;;;5014795;28;19920;-80
2022/05/22 09:51:38;;;;;;;7.55;1.60;;;19.80;99.90;;;;;;5036041;28;20045;-80
2022/05/22 09:54:19;;;;;;;11.02;2.00;;;19.70;99.90;;;;;;5037059;28;20057;-78
2022/05/22 09:57:05;;;;;;;8.52;1.50;;;19.80;99.90;;;;;;5056123;28;20047;-79
2022/05/22 10:00:02;;;;;;;10.77;1.60;;;19.70;99.90;;;;;;5054675;28;20094;-78
2022/05/22 10:02:38;;;;;;;;;;;19.70;99.90;;;;;;5019907;28;20063;-82
2022/05/22 10:05:27;;;;;;;12.65;1.98;;;19.60;99.90;;;;;;5019693;28;19924;-83
2022/05/22 10:08:17;;;;;;;8.07;1.40;;;19.70;99.90;;;;;;5035918;28;20048;-67
2022/05/22 10:11:01;;;;;;;11.77;1.60;;;20.00;99.90;;;;;;5053411;28;20052;-67
2022/05/22 10:13:34;;;;;;;7.03;1.35;;;20.30;99.90;;;;;;5053325;28;20477;-83
2022/05/22 10:16:06;;;;;;;7.18;1.17;;;20.70;99.90;;;;;;5049950;28;20044;-67
2022/05/22 10:18:58;;;;;;;7.88;1.50;;;20.80;99.90;;;;;;5065434;28;20131;-84
2022/05/22 10:21:30;;;;;;;9.10;1.50;;;20.40;99.70;;;;;;5030354;28;20481;-84
2022/05/22 10:24:11;;;;;;;6.13;1.23;;;20.20;99.90;;;;;;5054211;28;20076;-83
2022/05/22 10:26:44;;;;;;;6.20;1.40;;;20.00;99.60;;;;;;5050555;28;20138;-69
2022/05/22 10:29:39;;;;;;;6.55;1.20;;;19.90;99.70;;;;;;5056373;28;20063;-69
2022/05/22 10:32:26;;;;;;;7.80;1.30;;;20.20;99.90;;;;;;5060307;28;20052;-70
2022/05/22 10:35:15;;;;;;;4.55;0.95;;;20.80;99.80;;;;;;5054783;28;20048;-69
2022/05/22 10:37:53;;;;;;;9.32;1.00;;;20.90;99.80;;;;;;5052017;28;20053;-71
2022/05/22 10:40:22;;;;;;;9.38;1.73;;;21.00;99.40;;;;;;5052788;28;20138;-69
2022/05/22 10:42:52;;;;;;;4.15;1.02;;;21.10;99.20;;;;;;5052846;28;20053;-84
2022/05/22 10:45:21;;;;;;;8.02;1.30;;;21.30;98.70;;;;;;5055049;28;20467;-84
2022/05/22 10:47:48;;;;;;;6.80;1.10;;;21.10;98.70;;;;;;5048415;28;20044;-70
2022/05/22 10:50:27;;;;;;;5.30;1.02;;;21.10;98.60;;;;;;5051335;28;20055;-70
2022/05/22 10:52:54;;;;;;;8.23;1.38;;;21.20;98.90;;;;;;5063233;28;20048;-70
2022/05/22 10:55:36;;;;;;;5.32;1.25;;;21.50;98.60;;;;;;5057292;28;20452;-70
2022/05/22 10:58:15;;;;;;;6.47;1.10;;;21.90;99.10;;;;;;5069771;28;20049;-70
2022/05/22 11:00:53;;;;;;;6.03;0.98;;;22.30;99.30;;;;;;5074449;28;20702;-69
2022/05/22 11:03:24;;;;;;;5.93;1.05;;;22.10;98.30;;;;;;5069670;28;20047;-72
2022/05/22 11:05:51;;;;;;;6.60;1.00;;;22.20;99.10;;;;;;5061404;28;20040;-76
2022/05/22 11:08:48;;;;;;;5.47;0.93;;;22.30;98.80;;;;;;5069417;28;20063;-72
2022/05/22 11:11:19;;;;;;;4.65;1.02;;;22.20;98.30;;;;;;5088100;28;20154;-70
2022/05/22 11:13:45;;;;;;;9.95;1.20;;;22.30;98.10;;;;;;5077925;28;20051;-70
2022/05/22 11:16:12;;;;;;;5.85;1.23;;;22.40;98.10;;;;;;5072561;28;20045;-71
2022/05/22 11:18:38;;;;;;;4.20;0.80;;;22.70;97.70;;;;;;5055178;28;20106;-71
2022/05/22 11:21:07;;;;;;;8.38;1.15;;;23.10;98.10;;;;;;5052001;28;20049;-80
2022/05/22 11:23:56;;;;;;;5.75;1.02;;;23.40;97.30;;;;;;5052879;28;20056;-70
2022/05/22 11:27:03;;;;;;;4.78;1.00;;;23.20;97.80;;;;;;5058036;28;20049;-71
2022/05/22 11:29:29;;;;;;;;;;;23.20;97.50;;;;;;5051813;28;20053;-72
2022/05/22 11:32:24;;;;;;;7.15;1.30;;;23.30;98.20;;;;;;5051149;28;20541;-71
2022/05/22 11:34:50;;;;;;;4.25;1.08;;;23.60;98.00;;;;;;5047036;28;20519;-71
2022/05/22 11:37:32;;;;;;;7.57;1.23;;;23.30;98.10;;;;;;5052434;28;20037;-72
2022/05/22 11:40:06;;;;;;;4.28;0.90;;;23.30;99.00;;;;;;5052534;28;20040;-72
2022/05/22 11:42:39;;;;;;;6.50;1.10;;;23.40;99.20;;;;;;5054583;28;20136;-72
2022/05/22 11:45:24;;;;;;;6.03;1.48;;;23.20;98.90;;;;;;5054670;28;20563;-74
2022/05/22 11:48:35;;;;;;;4.75;1.08;;;22.80;98.20;;;;;;5055878;28;20398;-73
2022/05/22 11:51:16;;;;;;;8.27;1.10;;;22.70;99.10;;;;;;4964525;28;20077;-80
2022/05/22 11:54:07;;;;;;;8.25;1.52;;;22.40;98.40;;;;;;4971984;28;20495;-70
2022/05/22 11:57:09;;;;;;;6.53;1.20;;;22.50;99.10;;;;;;5042398;28;20053;-71
2022/05/22 12:00:14;;;;;;;5.57;1.27;;;22.60;98.60;;;;;;5056857;28;20045;-69
2022/05/22 12:02:55;;;;;;;4.97;1.23;;;22.70;98.70;;;;;;5055812;28;20393;-69
2022/05/22 12:05:39;;;;;;;6.68;1.13;;;22.70;98.70;;;;;;5055445;28;20052;-71
2022/05/22 12:08:20;;;;;;;2.22;0.80;;;23.10;98.00;;;;;;5056194;28;20045;-70
2022/05/22 12:11:05;;;;;;;7.63;1.15;;;23.40;98.10;;;;;;5063878;28;20048;-71
2022/05/22 12:13:52;;;;;;;5.88;1.02;;;23.20;98.20;;;;;;5060811;28;20385;-71
2022/05/22 12:16:31;;;;;;;5.65;1.08;;;23.00;98.00;;;;;;5063458;28;20472;-71
2022/05/22 12:19:35;;;;;;;4.78;1.00;;;23.00;98.50;;;;;;5055904;28;20063;-71
2022/05/22 12:22:20;;;;;;;3.47;0.80;;;23.00;98.30;;;;;;5053709;28;20122;-70
2022/05/22 12:24:55;;;;;;;7.05;1.10;;;23.00;98.00;;;;;;5055215;28;20051;-70
2022/05/22 12:27:31;;;;;;;3.83;1.08;;;23.10;98.70;;;;;;5055140;28;20124;-70
2022/05/22 12:30:13;;;;;;;5.72;1.10;;;23.50;98.60;;;;;;5055238;28;20063;-71
2022/05/22 12:32:50;;;;;;;6.70;1.02;;;24.30;98.20;;;;;;5054117;28;20570;-73
2022/05/22 12:35:17;;;;;;;4.30;0.90;;;24.60;97.40;;;;;;5054753;28;20037;-69
2022/05/22 12:37:48;;;;;;;6.53;0.80;;;23.90;97.30;;;;;;5055208;28;20049;-71
2022/05/22 12:40:19;;;;;;;5.40;1.65;;;23.70;97.60;;;;;;5055042;28;20118;-70
2022/05/22 12:42:51;;;;;;;3.92;1.35;;;23.70;98.30;;;;;;5054741;28;20493;-70
2022/05/22 12:45:18;;;;;;;6.28;0.98;;;23.60;98.10;;;;;;5037334;28;20049;-70
2022/05/22 12:47:47;;;;;;;4.97;1.17;;;23.50;98.20;;;;;;5037214;28;20557;-70
2022/05/22 12:50:31;;;;;;;5.55;1.00;;;23.30;97.80;;;;;;5037242;28;20552;-70
2022/05/22 12:52:56;;;;;;;5.05;1.60;;;23.20;97.40;;;;;;5053864;28;20084;-70
2022/05/22 12:55:42;;;;;;;5.20;1.10;;;22.80;97.70;;;;;;5054691;28;20096;-70
2022/05/22 12:58:36;;;;;;;6.28;1.00;;;22.80;97.50;;;;;;5036602;28;20088;-70
2022/05/22 13:01:02;;;;;;;5.80;0.90;;;23.00;98.00;;;;;;5054611;28;20044;-70
2022/05/22 13:03:40;;;;;;;5.05;1.05;;;23.50;98.40;;;;;;5054696;28;20497;-71
2022/05/22 13:06:23;;;;;;;4.50;1.08;;;24.00;97.60;;;;;;5054634;28;20037;-70
2022/05/22 13:08:59;;;;;;;4.57;0.98;;;24.10;97.40;;;;;;5054370;28;20041;-70
2022/05/22 13:11:30;;;;;;;;;;;24.20;97.60;;;;;;5055227;28;20049;-70
2022/05/22 13:13:57;;;;;;;5.32;1.40;;;23.80;97.50;;;;;;5054428;28;19920;-70
2022/05/22 13:16:34;;;;;;;3.72;0.90;;;23.90;97.50;;;;;;5036861;28;20052;-70
2022/05/22 13:19:00;;;;;;;6.70;1.45;;;24.10;98.10;;;;;;5054348;28;20044;-70
2022/05/22 13:21:40;;;;;;;4.20;1.17;;;24.20;97.00;;;;;;5053623;28;20045;-70